Terminal Aerodrome Forecast
Issued by NWS

Home | Current Version | Previous Version | Text Only | Print | Product List | Glossary On
Versions: 1 2 3 4 5 6 7 8 9 10 11 12 13 14 15 16 17 18
014
FTUS41 KBGM 241310 AAA
TAFITH
TAF AMD
KITH 241310Z 2413/2512 31010G17KT P6SM SCT150
     FM242300 30005KT P6SM SCT200=

USA.gov is the U.S. government's official web portal to all federal, state and local government web resources and services.